Terminal Aerodrome Forecast
Issued by NWS Hastings, NE

Home | Current Version | Previous Version | Text Only | Print | Product List | Glossary On
Versions: 1 2 3 4 5 6 7 8 9 10 11 12 13 14 15 16 17
000
FTUS45 KGID 231132
TAFEAR
TAF
KEAR 231132Z 2312/2412 04015G25KT P6SM OVC008
     FM231900 06018G28KT P6SM VCSH OVC008
     FM232100 04017G27KT 4SM -RASN OVC008
     FM240100 03019G30KT 3/4SM -SN OVC003
     FM240900 34018G30KT 1 1/2SM -SN OVC010
      AMD LTD TO CLD VIS AND WIND=

USA.gov is the U.S. government's official web portal to all federal, state and local government web resources and services.